Time;durP1;ratioP1;P1;durP2;ratioP2;P2;SDS_P1;SDS_P2;PMS_P1;PMS_P2;Temp;Humidity;BMP_temperature;BMP_pressure;BME280_temperature;BME280_humidity;BME280_pressure;Samples;Min_cycle;Max_cycle;Signal;HPM_P1;HPM_P2
2022/06/06 00:02:21;;;;;;;32.80;24.52;;;;;;;-148.88;100.00;75001.38;4968098;29;20027;-86
2022/06/06 00:05:12;;;;;;;29.10;22.52;;;;;;;-148.88;100.00;75009.50;4966142;28;20030;-87
2022/06/06 00:11:26;;;;;;;25.17;19.73;;;;;;;-148.88;100.00;75009.50;4858002;29;20037;-87
2022/06/06 00:14:20;;;;;;;26.15;20.35;;;;;;;-148.88;100.00;75017.63;4904804;29;20112;-86
2022/06/06 00:17:05;;;;;;;28.75;19.77;;;;;;;-148.88;100.00;75009.50;4907458;29;20132;-86
2022/06/06 00:19:59;;;;;;;;;;;;;;;;;;;;;
2022/06/06 00:22:33;;;;;;;28.83;20.27;;;;;;;-148.88;100.00;75013.56;4905997;29;20116;-88
2022/06/06 00:25:14;;;;;;;30.45;22.25;;;;;;;-148.88;100.00;75019.66;4906405;29;20077;-86
2022/06/06 00:28:10;;;;;;;;;;;;;;;;;;;;;
2022/06/06 00:34:48;;;;;;;31.65;22.20;;;;;;;-148.88;100.00;75021.69;4904800;28;20151;-87
2022/06/06 00:37:12;;;;;;;;;;;;;;;;;;;;;
2022/06/06 00:39:45;;;;;;;27.70;21.20;;;;;;;-148.88;100.00;75031.84;4963580;29;20131;-86
2022/06/06 00:42:48;;;;;;;28.38;21.08;;;;;;;-148.88;100.00;75025.75;4955890;28;20516;-86
2022/06/06 00:45:22;;;;;;;29.27;21.25;;;;;;;-148.88;100.00;75019.66;4959878;28;20031;-86
2022/06/06 00:48:14;;;;;;;28.23;21.17;;;;;;;-148.88;100.00;75029.81;4962897;29;20027;-86
2022/06/06 00:50:39;;;;;;;30.48;21.00;;;;;;;-148.88;100.00;75025.75;4961752;29;20038;-87
2022/06/06 00:53:09;;;;;;;28.40;21.40;;;;;;;-148.88;100.00;75033.88;4961206;28;20023;-88
2022/06/06 00:55:49;;;;;;;30.20;21.65;;;;;;;-148.88;100.00;75033.88;4960082;28;20110;-86
2022/06/06 00:58:26;;;;;;;25.63;19.42;;;;;;;-148.88;100.00;75033.88;4960434;29;20038;-86
2022/06/06 01:01:10;;;;;;;31.20;21.23;;;;;;;-148.88;100.00;75037.94;4959565;29;20023;-86
2022/06/06 01:07:03;;;;;;;33.78;22.60;;;;;;;-148.88;100.00;75035.91;4960196;29;20045;-88
2022/06/06 01:09:29;;;;;;;35.05;23.70;;;;;;;-148.88;100.00;75039.97;4956251;29;20043;-83
2022/06/06 01:12:07;;;;;;;37.35;23.70;;;;;;;-148.88;100.00;75037.94;4958526;28;20081;-86
2022/06/06 01:14:37;;;;;;;41.15;24.23;;;;;;;-148.88;100.00;75025.75;4958697;28;20035;-86
2022/06/06 01:17:05;;;;;;;38.25;23.98;;;;;;;-148.88;100.00;75033.88;4957890;29;20027;-85
2022/06/06 01:19:55;;;;;;;43.13;26.02;;;;;;;-148.88;100.00;75037.94;4974398;28;20035;-85
2022/06/06 01:22:59;;;;;;;39.72;25.17;;;;;;;-148.88;100.00;75029.81;4961015;28;20056;-85
2022/06/06 01:25:49;;;;;;;43.30;25.77;;;;;;;-148.88;100.00;75029.81;4958442;28;20023;-87
2022/06/06 01:28:45;;;;;;;45.25;26.35;;;;;;;-148.88;100.00;75031.84;4958616;29;20047;-86
2022/06/06 01:31:50;;;;;;;46.03;26.80;;;;;;;-148.88;100.00;75037.94;4973158;28;20035;-85
2022/06/06 01:34:23;;;;;;;48.83;27.05;;;;;;;-148.88;100.00;75037.94;4959395;28;20031;-86
2022/06/06 01:36:59;;;;;;;50.97;29.02;;;;;;;-148.88;100.00;75046.06;4956666;28;20024;-86
2022/06/06 01:39:31;;;;;;;51.30;27.45;;;;;;;-148.88;100.00;75058.25;4957112;29;20512;-84
2022/06/06 01:42:12;;;;;;;52.60;29.73;;;;;;;-148.88;100.00;75056.22;4957780;29;20039;-86
2022/06/06 01:45:02;;;;;;;56.35;30.38;;;;;;;-148.88;100.00;75050.13;4955986;28;20363;-86
2022/06/06 01:47:33;;;;;;;54.28;30.20;;;;;;;-148.88;100.00;75050.13;4956657;29;20035;-85
2022/06/06 01:49:58;;;;;;;59.85;31.85;;;;;;;-148.88;100.00;75054.19;4972326;28;20023;-85
2022/06/06 01:52:31;;;;;;;63.17;32.67;;;;;;;-148.88;100.00;75052.16;4972228;28;20516;-81
2022/06/06 01:54:57;;;;;;;56.58;32.05;;;;;;;-148.88;100.00;75048.09;4956335;28;20032;-84
2022/06/06 01:57:25;;;;;;;58.97;32.53;;;;;;;-148.88;100.00;75042.00;4971657;28;20516;-86
2022/06/06 01:59:52;;;;;;;60.53;33.08;;;;;;;-148.88;100.00;75033.88;4957408;28;20058;-85
2022/06/06 02:02:23;;;;;;;66.50;33.95;;;;;;;-148.88;100.00;75042.00;4956809;28;20030;-87
2022/06/06 02:04:49;;;;;;;66.03;33.92;;;;;;;-148.88;100.00;75037.94;4956892;28;20062;-86
2022/06/06 02:07:14;;;;;;;66.90;33.92;;;;;;;-148.88;100.00;75025.75;4958855;28;20032;-85
2022/06/06 02:09:39;;;;;;;68.97;34.55;;;;;;;-148.88;100.00;75033.88;4971882;28;20134;-85
2022/06/06 02:12:05;;;;;;;63.90;34.38;;;;;;;-148.88;100.00;75031.84;4959023;28;20062;-86
2022/06/06 02:14:31;;;;;;;66.38;34.53;;;;;;;-148.88;100.00;75037.94;4976345;28;20110;-86
2022/06/06 02:16:59;;;;;;;70.60;35.58;;;;;;;-148.88;100.00;75029.81;4974199;28;20418;-87
2022/06/06 02:19:31;;;;;;;68.70;34.88;;;;;;;-148.88;100.00;75033.88;4957512;29;20031;-85
2022/06/06 02:21:56;;;;;;;73.13;35.92;;;;;;;-148.88;100.00;75037.94;4973845;28;20387;-89
2022/06/06 02:24:22;;;;;;;79.07;37.45;;;;;;;-148.88;100.00;75039.97;4956615;28;20030;-82
2022/06/06 02:26:47;;;;;;;73.93;36.55;;;;;;;-148.88;100.00;75037.94;4973039;28;20113;-86
2022/06/06 02:29:12;;;;;;;80.53;38.00;;;;;;;-148.88;100.00;75033.88;4958690;28;20210;-84
2022/06/06 02:31:38;;;;;;;75.85;37.50;;;;;;;-148.88;100.00;75029.81;4974507;28;20083;-83
2022/06/06 02:34:07;;;;;;;76.93;38.58;;;;;;;-148.88;100.00;75042.00;4974844;28;20398;-86
2022/06/06 02:36:34;;;;;;;77.85;40.05;;;;;;;-148.88;100.00;75042.00;4958917;28;20409;-85
2022/06/06 02:39:00;;;;;;;82.97;39.83;;;;;;;-148.88;100.00;75054.19;4975563;28;20027;-85
2022/06/06 02:41:26;;;;;;;75.93;39.42;;;;;;;-148.88;100.00;75062.31;4975056;28;20123;-87
2022/06/06 02:43:52;;;;;;;70.07;35.95;;;;;;;-148.88;100.00;75066.38;4958113;28;20027;-87
2022/06/06 02:46:18;;;;;;;66.57;35.30;;;;;;;-148.88;100.00;75072.47;4958323;28;20023;-85
2022/06/06 02:48:43;;;;;;;61.95;32.75;;;;;;;-148.88;100.00;75090.72;4958895;29;20099;-84
2022/06/06 02:51:08;;;;;;;58.67;30.73;;;;;;;-148.88;100.00;75094.81;4975388;28;20101;-84
2022/06/06 02:53:34;;;;;;;63.35;32.85;;;;;;;-148.88;100.00;75094.81;4975689;28;20092;-84
2022/06/06 02:56:00;;;;;;;54.97;30.27;;;;;;;-148.88;99.96;75098.84;4959921;28;20046;-85
2022/06/06 02:58:26;;;;;;;54.40;27.92;;;;;;;-148.88;99.81;75117.13;4960564;29;20078;-84
2022/06/06 03:01:05;;;;;;;51.95;28.00;;;;;;;-148.88;99.95;75129.31;4972845;28;20122;-86
2022/06/06 03:03:31;;;;;;;50.40;27.95;;;;;;;-148.88;100.00;75135.41;4972285;28;20034;-84
2022/06/06 03:06:05;;;;;;;48.22;26.83;;;;;;;-148.88;100.00;75145.56;4957892;28;20015;-85
2022/06/06 03:08:56;;;;;;;52.75;27.17;;;;;;;-148.88;100.00;75143.53;4957582;29;20031;-84
2022/06/06 03:11:51;;;;;;;55.67;28.48;;;;;;;-148.88;100.00;75167.91;4974678;28;20082;-83
2022/06/06 03:14:41;;;;;;;59.80;28.90;;;;;;;-148.88;100.00;75169.94;4975866;28;20043;-86
2022/06/06 03:20:59;;;;;;;52.72;28.23;;;;;;;-148.88;100.00;75180.09;4955367;28;20066;-86
2022/06/06 03:23:41;;;;;;;56.40;28.40;;;;;;;-148.88;100.00;75192.28;4958999;29;20024;-86
2022/06/06 03:26:25;;;;;;;49.78;25.83;;;;;;;-148.88;100.00;75204.47;4975866;28;20019;-85
2022/06/06 03:29:09;;;;;;;42.40;22.30;;;;;;;-148.88;100.00;75200.41;4959258;29;20032;-85
2022/06/06 03:32:01;;;;;;;40.00;21.70;;;;;;;-148.88;99.96;75208.53;4960997;28;20565;-85
2022/06/06 03:34:38;;;;;;;44.53;21.15;;;;;;;-148.88;99.91;75208.53;4975391;28;20023;-86
2022/06/06 03:37:19;;;;;;;38.60;20.75;;;;;;;-148.88;99.79;75208.53;4960325;28;20035;-83
2022/06/06 03:40:16;;;;;;;36.88;19.52;;;;;;;-148.88;98.82;75204.47;4960315;28;20034;-83
2022/06/06 03:43:22;;;;;;;32.08;17.83;;;;;;;-148.88;98.79;75220.72;4976062;28;20503;-87
2022/06/06 03:46:05;;;;;;;33.25;17.45;;;;;;;-148.88;98.02;75224.78;4974039;28;20035;-86
2022/06/06 03:48:55;;;;;;;32.42;17.40;;;;;;;-148.88;98.14;75224.78;4958680;29;20512;-87
2022/06/06 03:51:32;;;;;;;32.95;18.00;;;;;;;-148.88;97.76;75224.78;4958559;29;20031;-88
2022/06/06 03:54:12;;;;;;;33.95;16.70;;;;;;;-148.88;98.14;75224.78;4973716;28;20170;-90
2022/06/06 03:56:58;;;;;;;30.65;17.25;;;;;;;-148.88;97.73;75214.63;4958438;28;20027;-87
2022/06/06 03:59:29;;;;;;;31.23;15.98;;;;;;;-148.88;97.81;75214.63;4974126;28;20114;-85
2022/06/06 04:02:11;;;;;;;31.48;16.55;;;;;;;-148.88;97.73;75212.59;4958729;29;20031;-85
2022/06/06 04:04:38;;;;;;;33.58;16.58;;;;;;;-148.88;98.29;75228.84;4958764;28;20429;-86
2022/06/06 04:07:03;;;;;;;28.00;16.20;;;;;;;-148.88;98.29;75228.84;4961204;28;20089;-86
2022/06/06 04:09:47;;;;;;;31.25;16.23;;;;;;;-148.88;97.83;75224.78;4976900;28;20121;-86
2022/06/06 04:12:43;;;;;;;30.55;16.25;;;;;;;-148.88;98.14;75224.78;4975565;28;20035;-87
2022/06/06 04:15:43;;;;;;;35.20;16.40;;;;;;;-148.88;98.25;75224.78;4976598;28;20520;-86
2022/06/06 04:18:26;;;;;;;30.48;16.27;;;;;;;-148.88;99.06;75230.88;4958409;29;20442;-86
2022/06/06 04:21:21;;;;;;;33.10;16.20;;;;;;;-148.88;99.14;75236.97;4961695;29;20054;-88
2022/06/06 04:24:00;;;;;;;34.67;17.90;;;;;;;-148.88;99.54;75236.97;4979358;28;20015;-86
2022/06/06 04:26:41;;;;;;;35.65;16.67;;;;;;;-148.88;99.71;75245.09;4979093;28;20062;-86
2022/06/06 04:29:31;;;;;;;33.45;17.38;;;;;;;-148.88;99.65;75249.16;4964687;28;20031;-86
2022/06/06 04:32:21;;;;;;;36.67;17.92;;;;;;;-148.88;99.72;75241.03;4964339;28;20027;-87
2022/06/06 04:35:11;;;;;;;37.10;18.35;;;;;;;-148.88;100.00;75236.97;4964192;28;20474;-86
2022/06/06 04:37:54;;;;;;;38.47;18.60;;;;;;;-148.88;100.00;75245.09;4964716;28;20429;-86
2022/06/06 04:40:35;;;;;;;33.47;17.10;;;;;;;-148.88;99.87;75236.97;4965494;28;20027;-85
2022/06/06 04:43:38;;;;;;;32.40;16.40;;;;;;;-148.88;100.00;75241.03;4966186;28;20262;-86
2022/06/06 04:46:21;;;;;;;34.17;16.77;;;;;;;-148.88;100.00;75245.09;4962805;28;20024;-85
2022/06/06 04:48:47;;;;;;;31.00;14.73;;;;;;;-148.88;100.00;75232.91;4964984;29;20031;-85
2022/06/06 04:51:20;;;;;;;30.33;14.50;;;;;;;-148.88;100.00;75234.94;4963494;28;20099;-86
2022/06/06 04:53:48;;;;;;;31.75;15.52;;;;;;;-148.88;100.00;75236.97;4960164;29;20027;-86
2022/06/06 04:56:25;;;;;;;27.73;13.98;;;;;;;-148.88;100.00;75249.16;4973663;28;20027;-85
2022/06/06 04:58:53;;;;;;;30.60;15.30;;;;;;;-148.88;100.00;75245.09;4958029;29;20034;-85
2022/06/06 05:01:20;;;;;;;36.80;16.67;;;;;;;-148.88;100.00;75236.97;4957914;28;20038;-86
2022/06/06 05:03:45;;;;;;;36.47;16.92;;;;;;;-148.88;100.00;75247.13;4957590;28;20115;-85
2022/06/06 05:06:16;;;;;;;35.08;17.88;;;;;;;-148.88;100.00;75249.16;4976102;28;20092;-84
2022/06/06 05:08:48;;;;;;;41.10;17.85;;;;;;;-148.88;100.00;75243.06;4960282;28;20027;-86
2022/06/06 05:11:32;;;;;;;38.65;18.35;;;;;;;-148.88;100.00;75245.09;4963298;29;20104;-86
2022/06/06 05:13:57;;;;;;;38.33;20.00;;;;;;;-148.88;100.00;75253.22;4961792;29;20270;-85
2022/06/06 05:16:44;;;;;;;39.33;19.13;;;;;;;-148.88;100.00;75257.28;4960142;28;20096;-86
2022/06/06 05:19:32;;;;;;;47.60;21.13;;;;;;;-148.88;100.00;75249.16;4962689;29;20027;-85
2022/06/06 05:22:34;;;;;;;45.90;22.42;;;;;;;-148.88;100.00;75232.91;4961367;29;20114;-87
2022/06/06 05:25:13;;;;;;;48.47;23.88;;;;;;;-148.88;100.00;75216.66;4964970;28;20019;-86
2022/06/06 05:28:08;;;;;;;47.80;23.65;;;;;;;-148.88;100.00;75220.72;4978364;28;20038;-87
2022/06/06 05:30:50;;;;;;;52.78;25.00;;;;;;;-148.88;100.00;75216.66;4967119;28;20023;-86
2022/06/06 05:33:27;;;;;;;49.00;25.55;;;;;;;-148.88;100.00;75216.66;4963778;29;20053;-85
2022/06/06 05:36:54;;;;;;;50.58;25.55;;;;;;;-148.88;100.00;75212.59;5002262;23;20136;-86
2022/06/06 05:39:58;;;;;;;49.47;25.20;;;;;;;-148.88;100.00;75214.63;4989835;28;20046;-85
2022/06/06 05:42:32;;;;;;;50.80;26.80;;;;;;;-148.88;100.00;75216.66;4998429;28;20041;-86
2022/06/06 05:45:06;;;;;;;57.15;26.45;;;;;;;-148.88;100.00;75212.59;5000884;28;20029;-85
2022/06/06 05:47:59;;;;;;;51.08;25.85;;;;;;;-148.88;100.00;75224.78;5002460;28;20137;-85
2022/06/06 05:50:58;;;;;;;53.17;26.02;;;;;;;-148.88;100.00;75234.94;5001789;28;20037;-84
2022/06/06 05:53:48;;;;;;;49.42;26.45;;;;;;;-148.88;100.00;75241.03;4999777;28;20113;-86
2022/06/06 05:56:40;;;;;;;53.83;26.88;;;;;;;-148.88;100.00;75224.78;4997311;28;20531;-86
2022/06/06 05:59:11;;;;;;;50.55;26.17;;;;;;;-148.88;100.00;75234.94;4997366;28;20030;-83
2022/06/06 06:01:52;;;;;;;50.88;26.73;;;;;;;-148.88;100.00;75236.97;4994796;28;20056;-85
2022/06/06 06:04:52;;;;;;;48.97;26.42;;;;;;;-148.88;100.00;75212.59;4995920;28;20034;-85
2022/06/06 06:07:55;;;;;;;48.42;25.85;;;;;;;-148.88;99.69;75198.38;4997798;28;20026;-86
2022/06/06 06:10:48;;;;;;;47.75;25.10;;;;;;;-148.88;99.25;75190.25;4997783;28;20022;-85
2022/06/06 06:13:26;;;;;;;46.55;26.50;;;;;;;-148.88;99.41;75204.47;4999942;28;20428;-86
2022/06/06 06:16:03;;;;;;;50.58;26.27;;;;;;;-148.88;99.77;75204.47;4998697;28;20113;-85
2022/06/06 06:18:52;;;;;;;45.67;25.35;;;;;;;-148.88;99.64;75192.28;5001771;28;20033;-86
2022/06/06 06:21:23;;;;;;;50.92;29.05;;;;;;;-148.88;99.36;75176.03;4999580;28;20022;-86
2022/06/06 06:24:01;;;;;;;49.67;26.80;;;;;;;-148.88;97.38;75147.59;4998169;28;20030;-85
2022/06/06 06:26:33;;;;;;;48.47;27.23;;;;;;;-148.88;96.60;75151.66;4997923;28;20026;-85
2022/06/06 06:29:12;;;;;;;47.65;26.63;;;;;;;-148.88;96.47;75135.41;4998227;28;20030;-86
2022/06/06 06:32:30;;;;;;;49.17;27.52;;;;;;;-148.88;97.13;75127.28;4996237;28;20026;-87
2022/06/06 06:35:08;;;;;;;48.53;27.13;;;;;;;-148.88;96.54;75129.31;4957903;28;20034;-86
2022/06/06 06:41:30;;;;;;;42.63;25.52;;;;;;;-148.88;96.48;75098.84;4996019;28;20104;-86
2022/06/06 06:44:14;;;;;;;42.47;25.92;;;;;;;-148.88;94.46;75084.66;4978889;28;20034;-86
2022/06/06 06:47:03;;;;;;;44.25;25.67;;;;;;;-148.88;94.83;75098.84;4994603;28;20459;-87
2022/06/06 06:53:12;;;;;;;36.53;23.20;;;;;;;-148.88;93.77;75082.63;4977097;28;20031;-87
2022/06/06 06:56:32;;;;;;;;;;;;;;;;;;;;;
2022/06/06 06:59:53;;;;;;;33.80;21.60;;;;;;;-148.88;91.97;75094.81;4996155;28;20121;-86
2022/06/06 07:09:24;;;;;;;28.50;18.10;;;;;;;-148.88;92.65;75117.13;5000241;28;20065;-85
2022/06/06 07:13:16;;;;;;;28.60;17.73;;;;;;;-148.88;93.32;75111.03;4999744;28;20365;-87
2022/06/06 07:15:54;;;;;;;26.05;16.65;;;;;;;-148.88;93.46;75102.91;4985953;28;20037;-86
2022/06/06 07:22:06;;;;;;;24.48;16.13;;;;;;;-148.88;92.30;75113.06;4952205;28;20068;-87
2022/06/06 07:24:32;;;;;;;22.67;14.85;;;;;;;-148.88;91.95;75119.16;5005081;28;20026;-86
2022/06/06 07:27:21;;;;;;;25.35;16.35;;;;;;;-148.88;91.43;75117.13;5003973;28;20092;-86
2022/06/06 07:29:56;;;;;;;23.10;15.48;;;;;;;-148.88;92.06;75115.09;4999533;28;20036;-86
2022/06/06 07:33:05;;;;;;;20.30;14.18;;;;;;;-148.88;91.38;75111.03;4999680;28;20049;-88
2022/06/06 07:36:16;;;;;;;20.20;13.65;;;;;;;-148.88;90.97;75094.81;4967801;28;20038;-87
2022/06/06 07:39:07;;;;;;;20.00;13.65;;;;;;;-148.88;88.74;75062.31;4998947;28;20038;-86
2022/06/06 07:42:20;;;;;;;18.00;12.68;;;;;;;-148.88;86.78;75054.19;4999386;28;20028;-86
2022/06/06 07:48:13;;;;;;;17.75;12.00;;;;;;;-148.88;83.18;75029.81;5000078;28;20408;-86
2022/06/06 07:51:00;;;;;;;15.15;11.70;;;;;;;-148.88;83.73;75005.44;5000350;28;20033;-86
2022/06/06 07:53:53;;;;;;;16.52;11.50;;;;;;;-148.88;83.08;74993.25;5002110;28;20042;-87
2022/06/06 07:56:50;;;;;;;14.80;10.48;;;;;;;-148.88;79.84;74981.06;4999542;28;20057;-87
2022/06/06 08:00:42;;;;;;;11.90;9.93;;;;;;;-148.88;79.34;74936.41;4957300;28;20381;-86
2022/06/06 08:02:59;;;;;;;13.35;10.52;;;;;;;-148.88;77.26;74950.59;4920129;29;20040;-87
2022/06/06 08:05:28;;;;;;;14.60;10.80;;;;;;;-148.88;77.03;74966.84;4945535;28;20065;-86
2022/06/06 08:08:43;;;;;;;12.32;9.65;;;;;;;-148.88;76.07;74964.81;4999307;28;20370;-85
2022/06/06 08:11:33;;;;;;;10.40;8.55;;;;;;;-148.88;77.76;74938.44;5000088;28;20061;-87
2022/06/06 08:14:46;;;;;;;11.52;9.48;;;;;;;-148.88;75.07;74972.94;4998493;28;20030;-86
2022/06/06 08:17:41;;;;;;;12.25;8.73;;;;;;;-148.88;75.54;75011.53;4997767;28;20030;-86
2022/06/06 08:20:39;;;;;;;9.07;6.88;;;;;;;-148.88;71.98;75044.03;4993300;28;20448;-85
2022/06/06 08:23:23;;;;;;;9.73;6.80;;;;;;;-148.88;73.67;75001.38;4997696;28;20093;-86
2022/06/06 08:25:56;;;;;;;8.45;6.47;;;;;;;-148.88;69.78;74981.06;4998794;28;20038;-86
2022/06/06 08:28:28;;;;;;;8.20;6.28;;;;;;;-148.88;68.61;74974.97;4999814;28;20120;-87
2022/06/06 08:30:56;;;;;;;8.75;6.57;;;;;;;-148.88;68.56;74981.06;5002069;28;20042;-87
2022/06/06 08:33:34;;;;;;;9.30;6.93;;;;;;;-148.88;70.90;74958.72;5000806;28;20023;-87
2022/06/06 08:36:39;;;;;;;7.53;6.15;;;;;;;-148.88;68.50;74956.69;4998530;28;20030;-86
2022/06/06 08:39:36;;;;;;;8.70;6.38;;;;;;;-148.88;70.88;74934.38;4998988;28;20177;-84
2022/06/06 08:42:28;;;;;;;8.40;6.95;;;;;;;-148.88;70.75;74950.59;4998324;28;20058;-87
2022/06/06 08:45:30;;;;;;;10.10;6.30;;;;;;;-148.88;69.26;74942.47;4996500;28;20033;-87
2022/06/06 08:52:09;;;;;;;8.23;5.50;;;;;;;-148.88;69.05;74907.97;4929567;29;20091;-86
2022/06/06 08:58:18;;;;;;;6.13;4.82;;;;;;;-148.88;65.71;74883.59;4950952;28;20168;-87
2022/06/06 09:01:24;;;;;;;6.32;5.10;;;;;;;-148.88;66.07;74863.28;4941921;28;20023;-88
2022/06/06 09:04:04;;;;;;;6.88;5.25;;;;;;;-148.88;65.42;74830.78;4980883;28;20489;-85
2022/06/06 09:07:17;;;;;;;;;;;;;;;;;;;;;
2022/06/06 09:10:15;;;;;;;8.50;4.65;;;;;;;-148.88;61.98;74863.28;5002787;28;20125;-87
2022/06/06 09:13:18;;;;;;;6.43;4.43;;;;;;;-148.88;62.12;74853.13;4996696;28;20023;-85
2022/06/06 09:16:12;;;;;;;6.55;4.85;;;;;;;-148.88;62.45;74826.72;4995482;28;20503;-87
2022/06/06 09:19:15;;;;;;;7.32;4.43;;;;;;;-148.88;61.66;74810.50;4996066;28;20500;-87
2022/06/06 09:23:04;;;;;;;4.60;4.05;;;;;;;-148.88;61.97;74802.38;4995356;28;20451;-85
2022/06/06 09:25:21;;;;;;;5.07;4.20;;;;;;;-148.88;61.86;74847.03;4996850;23;20190;-77
2022/06/06 09:28:21;;;;;;;5.00;3.90;;;;;;;-148.88;60.28;74887.66;4994080;28;20030;-76
2022/06/06 09:31:21;;;;;;;6.53;3.83;;;;;;;-148.88;61.51;74838.91;4995140;28;20486;-76
2022/06/06 09:34:30;;;;;;;4.25;3.35;;;;;;;-148.88;60.81;74773.94;4995497;28;20476;-77
2022/06/06 09:37:31;;;;;;;4.90;3.80;;;;;;;-148.88;60.76;74780.03;4991709;28;20380;-77
2022/06/06 09:40:24;;;;;;;4.68;3.10;;;;;;;-148.88;61.17;74702.84;4994018;28;20025;-77
2022/06/06 09:43:13;;;;;;;4.57;2.80;;;;;;;-148.88;56.29;74672.41;4994806;28;20026;-77
2022/06/06 09:46:02;;;;;;;4.00;2.30;;;;;;;-148.88;53.79;74729.25;5012405;28;20022;-77
2022/06/06 09:48:52;;;;;;;5.07;2.10;;;;;;;-148.88;54.63;74708.94;5014337;28;20521;-77
2022/06/06 09:51:48;;;;;;;3.85;2.00;;;;;;;-148.88;54.90;74753.63;5013273;28;20036;-77
2022/06/06 10:00:43;;;;;;;2.58;1.80;;;;;;;-148.88;50.26;74696.78;5014521;28;20040;-77
2022/06/06 10:03:50;;;;;;;2.25;1.50;;;;;;;-148.88;53.77;74696.78;5009220;28;20033;-78
2022/06/06 10:06:42;;;;;;;3.70;1.70;;;;;;;-148.88;53.43;74696.78;5013838;28;20038;-77
2022/06/06 10:13:22;;;;;;;3.10;1.80;;;;;;;-148.88;52.65;74662.25;5013756;28;20033;-82
2022/06/06 10:16:09;;;;;;;3.03;1.70;;;;;;;-148.88;52.01;74674.44;5019279;28;20021;-83
2022/06/06 10:18:53;;;;;;;3.28;1.52;;;;;;;-148.88;49.62;74704.88;5020144;28;20053;-82
2022/06/06 10:21:44;;;;;;;3.63;1.50;;;;;;;-148.88;50.42;74672.41;5017609;28;20053;-84
2022/06/06 10:24:35;;;;;;;3.00;1.50;;;;;;;-148.88;49.94;74672.41;5019524;28;20053;-81
2022/06/06 10:27:19;;;;;;;3.97;1.50;;;;;;;-148.88;49.40;74617.56;5018986;28;20034;-81
2022/06/06 10:30:26;;;;;;;2.55;1.38;;;;;;;-148.88;51.35;74574.94;5017457;28;20034;-82
2022/06/06 10:33:10;;;;;;;2.60;1.40;;;;;;;-148.88;49.12;74648.03;5015902;28;20044;-81
2022/06/06 10:35:44;;;;;;;2.20;1.30;;;;;;;-148.88;50.96;74733.31;5015473;28;20018;-80
2022/06/06 10:38:20;;;;;;;2.28;1.27;;;;;;;-148.88;52.65;74737.38;5016003;28;20026;-82
2022/06/06 10:41:23;;;;;;;2.28;1.23;;;;;;;-148.88;52.64;74713.00;5017436;28;20037;-82
2022/06/06 10:44:15;;;;;;;2.58;1.38;;;;;;;-148.88;49.18;74702.84;5019102;28;20029;-83
2022/06/06 10:46:47;;;;;;;3.15;1.27;;;;;;;-148.88;49.88;74798.31;5018134;28;20030;-83
2022/06/06 10:49:42;;;;;;;4.93;1.60;;;;;;;-148.88;51.74;74745.50;5016381;28;20025;-81
2022/06/06 10:52:26;;;;;;;3.72;1.60;;;;;;;-148.88;51.81;74690.69;5017122;28;20053;-81
2022/06/06 10:55:27;;;;;;;3.22;1.50;;;;;;;-148.88;51.33;74715.03;5020344;28;20018;-83
2022/06/06 10:58:26;;;;;;;3.30;1.70;;;;;;;-148.88;52.23;74786.13;5018205;28;20084;-82
2022/06/06 11:01:46;;;;;;;3.58;1.40;;;;;;;-148.88;52.37;74778.00;5018948;28;20057;-83
2022/06/06 11:04:30;;;;;;;2.45;1.60;;;;;;;-148.88;53.21;74727.22;5021252;28;20033;-82
2022/06/06 11:07:18;;;;;;;;;;;;;;;-148.88;53.58;74745.50;5018204;28;20034;-82
2022/06/06 11:10:21;;;;;;;3.92;1.63;;;;;;;-148.88;53.62;74729.25;5034892;28;19980;-81
2022/06/06 11:13:11;;;;;;;3.03;1.75;;;;;;;-148.88;51.88;74700.84;5015889;28;20207;-81
2022/06/06 11:16:06;;;;;;;3.75;1.73;;;;;;;-148.88;48.79;74589.16;5015032;28;20084;-83
2022/06/06 11:18:57;;;;;;;2.60;1.25;;;;;;;-148.88;48.39;74520.09;5002186;28;20041;-82
2022/06/06 11:21:47;;;;;;;2.42;1.13;;;;;;;-148.88;46.13;74526.19;5018611;28;20036;-83
2022/06/06 11:24:30;;;;;;;2.13;1.15;;;;;;;-148.88;47.19;74542.44;5017100;28;20022;-82
2022/06/06 11:27:06;;;;;;;2.83;1.25;;;;;;;-148.88;47.15;74566.81;5016687;28;20026;-83
2022/06/06 11:30:02;;;;;;;2.97;1.30;;;;;;;-148.88;45.43;74564.78;5018655;28;20056;-82
2022/06/06 11:32:52;;;;;;;2.83;1.20;;;;;;;-148.88;46.23;74550.56;5018573;28;20022;-82
2022/06/06 11:36:08;;;;;;;2.80;1.17;;;;;;;-148.88;46.29;74597.25;5029169;22;20032;-76
2022/06/06 11:38:57;;;;;;;1.80;1.15;;;;;;;-148.88;45.95;74619.59;5003950;28;20044;-76
2022/06/06 11:41:49;;;;;;;1.60;0.93;;;;;;;-148.88;46.43;74625.69;5013020;28;20076;-76
2022/06/06 11:44:37;;;;;;;4.25;1.10;;;;;;;-148.88;47.66;74631.78;5012741;28;20041;-76
2022/06/06 11:47:14;;;;;;;2.75;1.40;;;;;;;-148.88;48.18;74607.41;5013042;28;20042;-76
2022/06/06 11:49:57;;;;;;;3.88;1.60;;;;;;;-148.88;48.56;74581.03;5013435;28;20084;-77
2022/06/06 11:53:01;;;;;;;3.05;1.42;;;;;;;-148.88;47.84;74562.75;5012918;28;20391;-76
2022/06/06 11:55:49;;;;;;;2.15;1.40;;;;;;;-148.88;48.16;74481.53;5013014;28;20062;-76
2022/06/06 11:58:45;;;;;;;6.50;1.40;;;;;;;-148.88;45.89;74505.88;5013013;28;20037;-77
2022/06/06 12:01:40;;;;;;;3.13;1.20;;;;;;;-148.88;46.35;74442.94;5015338;28;20049;-77
2022/06/06 12:04:27;;;;;;;2.83;1.45;;;;;;;-148.88;45.43;74398.28;5017008;28;20552;-76
2022/06/06 12:07:15;;;;;;;3.35;1.00;;;;;;;-148.88;45.59;74449.03;5016498;28;20037;-76
2022/06/06 12:09:57;;;;;;;1.88;1.20;;;;;;;-148.88;44.07;74444.97;5015298;28;20018;-76
2022/06/06 12:13:02;;;;;;;2.72;1.15;;;;;;;-148.88;45.46;74493.72;5015146;28;20022;-76
2022/06/06 12:15:56;;;;;;;2.67;1.20;;;;;;;-148.88;48.39;74591.19;4955978;29;20425;-76
2022/06/06 12:18:40;;;;;;;2.00;1.13;;;;;;;-148.88;47.36;74599.28;4956499;29;20070;-77
2022/06/06 12:21:52;;;;;;;2.80;1.10;;;;;;;-148.88;48.01;74509.94;5003137;28;20074;-76
2022/06/06 12:24:37;;;;;;;1.35;0.70;;;;;;;-148.88;45.03;74493.72;5014741;28;20029;-76
2022/06/06 12:27:24;;;;;;;1.15;0.73;;;;;;;-148.88;47.15;74514.00;5014750;28;20084;-76
2022/06/06 12:30:07;;;;;;;1.65;0.80;;;;;;;-148.88;46.72;74459.19;5014567;28;20022;-76
2022/06/06 12:32:46;;;;;;;2.38;0.77;;;;;;;-148.88;45.66;74485.59;5016065;28;20080;-76
2022/06/06 12:35:28;;;;;;;2.30;0.73;;;;;;;-148.88;44.43;74589.16;5016038;28;20029;-76
2022/06/06 12:38:19;;;;;;;3.92;1.00;;;;;;;-148.88;44.55;74509.94;5015757;28;20501;-76
2022/06/06 12:40:53;;;;;;;1.40;0.70;;;;;;;-148.88;44.71;74524.16;5014517;28;20459;-76
2022/06/06 12:43:56;;;;;;;1.38;0.75;;;;;;;-148.88;45.84;74528.22;5015788;28;20037;-76
2022/06/06 12:46:42;;;;;;;2.40;0.50;;;;;;;-148.88;44.31;74524.16;5015448;28;20108;-76
2022/06/06 12:49:30;;;;;;;1.20;0.70;;;;;;;-148.88;45.08;74607.41;5015958;28;20026;-76
2022/06/06 12:52:02;;;;;;;1.63;0.77;;;;;;;-148.88;47.27;74589.16;5015627;28;20029;-76
2022/06/06 12:57:58;;;;;;;1.45;0.77;;;;;;;-148.88;47.31;74625.69;5015768;28;20114;-76
2022/06/06 13:03:29;;;;;;;5.20;0.93;;;;;;;-148.88;47.26;74717.06;5015663;28;20071;-76
2022/06/06 13:06:06;;;;;;;4.18;0.80;;;;;;;-148.88;48.47;74790.19;5015583;28;20052;-76
2022/06/06 13:08:47;;;;;;;2.90;1.00;;;;;;;-148.88;51.10;74804.41;5015462;28;20547;-76
2022/06/06 13:11:30;;;;;;;2.80;0.93;;;;;;;-148.88;50.31;74847.03;5015173;28;20033;-77
2022/06/06 13:14:25;;;;;;;2.42;1.10;;;;;;;-148.88;53.72;74867.34;5015377;28;20034;-77
2022/06/06 13:17:16;;;;;;;2.95;1.10;;;;;;;-148.88;56.65;74875.47;5015733;28;20498;-76
2022/06/06 13:20:06;;;;;;;2.55;1.10;;;;;;;-148.88;60.94;74926.25;5015593;28;20037;-76
2022/06/06 13:23:04;;;;;;;3.30;1.10;;;;;;;-148.88;62.30;74960.75;5015270;28;20465;-76
2022/06/06 13:25:48;;;;;;;2.45;1.10;;;;;;;-148.88;64.77;74997.31;5015457;28;20022;-76
2022/06/06 13:28:32;;;;;;;4.28;1.20;;;;;;;-148.88;63.61;74993.25;5014955;28;20486;-76
2022/06/06 13:31:04;;;;;;;;;;;;;;;-148.88;63.18;74981.06;5014393;28;20113;-76
2022/06/06 13:34:03;;;;;;;5.65;1.10;;;;;;;-148.88;61.61;74964.81;5015065;28;19910;-76